createdAt,value
2023-04-30T00:08:59.585Z,101358.16
2023-04-30T00:19:02.665Z,101353.16
2023-04-30T00:29:07.701Z,101357.56
2023-04-30T00:39:10.914Z,101369.09
2023-04-30T00:49:15.393Z,101375.22
2023-04-30T00:59:18.822Z,101384.81
2023-04-30T01:09:23.634Z,101372.78
2023-04-30T01:19:42.501Z,101379.88
2023-04-30T01:29:47.002Z,101385.13
2023-04-30T01:40:07.700Z,101381.06
2023-04-30T01:50:26.371Z,101385.47
2023-04-30T02:00:31.605Z,101375.28
2023-04-30T02:10:36.133Z,101381.41
2023-04-30T02:20:39.314Z,101377.13
2023-04-30T02:30:43.481Z,101380.72
2023-04-30T02:40:46.724Z,101389.56
2023-04-30T02:50:51.421Z,101397.16
2023-04-30T03:00:54.991Z,101402.41
2023-04-30T03:10:59.351Z,101417.94
2023-04-30T03:21:02.951Z,101399.94
2023-04-30T03:31:07.548Z,101392.25
2023-04-30T03:41:11.181Z,101394.78
2023-04-30T03:51:15.738Z,101382.91
2023-04-30T04:01:18.724Z,101382.94
2023-04-30T04:11:23.152Z,101382.19
2023-04-30T04:21:25.917Z,101400.16
2023-04-30T04:31:30.400Z,101405.28
2023-04-30T04:41:35.286Z,101412.13
2023-04-30T04:51:40.765Z,101418.13
2023-04-30T05:01:43.934Z,101419.84
2023-04-30T05:11:49.361Z,101429.22
2023-04-30T05:21:52.635Z,101436.03
2023-04-30T05:31:57.474Z,101442.00
2023-04-30T05:42:00.448Z,101473.69
2023-04-30T05:52:04.968Z,101474.53
2023-04-30T06:02:08.233Z,101465.06
2023-04-30T06:12:12.666Z,101455.63
2023-04-30T06:22:15.523Z,101459.97
2023-04-30T06:32:20.083Z,101457.38
2023-04-30T06:42:23.187Z,101448.69
2023-04-30T06:52:27.578Z,101460.66
2023-04-30T07:02:30.877Z,101453.84
2023-04-30T07:12:35.460Z,101440.88
2023-04-30T07:22:38.664Z,101436.63
2023-04-30T07:32:43.797Z,101454.19
2023-04-30T07:42:47.133Z,101446.06
2023-04-30T07:52:51.850Z,101436.81
2023-04-30T08:02:55.219Z,101436.94
2023-04-30T08:12:59.893Z,101442.41
2023-04-30T08:23:02.862Z,101433.25
2023-04-30T08:33:08.212Z,101427.56
2023-04-30T08:43:11.922Z,101423.38
2023-04-30T08:53:18.616Z,101408.72
2023-04-30T09:03:22.304Z,101412.81
2023-04-30T09:13:41.358Z,101406.09
2023-04-30T09:23:56.056Z,101385.38
2023-04-30T09:34:00.647Z,101384.53
2023-04-30T09:44:03.723Z,101373.41
2023-04-30T09:54:10.600Z,101366.91
2023-04-30T10:04:16.231Z,101342.91
2023-04-30T10:14:21.398Z,101339.16
2023-04-30T10:24:24.670Z,101317.56
2023-04-30T10:34:39.474Z,101319.94
2023-04-30T10:44:42.730Z,101305.41
2023-04-30T10:54:51.887Z,101294.88
2023-04-30T11:05:11.814Z,101279.00
2023-04-30T11:15:18.474Z,101259.59
2023-04-30T11:25:22.788Z,101267.19
2023-04-30T11:35:27.446Z,101249.13
2023-04-30T11:45:31.730Z,101250.69
2023-04-30T11:55:36.513Z,101229.31
2023-04-30T12:05:58.632Z,101220.31
2023-04-30T12:16:03.506Z,101207.22
2023-04-30T12:26:06.796Z,101203.41
2023-04-30T12:36:12.701Z,101182.09
2023-04-30T12:46:27.754Z,101174.97
2023-04-30T12:56:32.325Z,101166.03
2023-04-30T13:06:35.391Z,101168.38
2023-04-30T13:16:40.698Z,101159.78
2023-04-30T13:26:43.729Z,101140.34
2023-04-30T13:36:48.103Z,101127.22
2023-04-30T13:46:51.190Z,101117.66
2023-04-30T13:56:55.594Z,101100.69
2023-04-30T14:06:58.654Z,101089.09
2023-04-30T14:17:04.761Z,101080.28
2023-04-30T14:27:07.970Z,101072.00
2023-04-30T14:37:12.110Z,101063.88
2023-04-30T14:58:41.421Z,101054.00
2023-04-30T15:08:44.540Z,101042.88
2023-04-30T15:18:49.761Z,101033.94
2023-04-30T15:28:52.949Z,101026.84
2023-04-30T15:38:57.410Z,101022.53
2023-04-30T15:49:01.134Z,101008.81
2023-04-30T15:59:05.244Z,101001.63
2023-04-30T16:09:09.444Z,100998.75
2023-04-30T16:19:14.173Z,100985.72
2023-04-30T16:29:17.453Z,100981.56
2023-04-30T16:39:22.068Z,100977.91
2023-04-30T16:49:25.317Z,100967.97
2023-04-30T16:59:29.472Z,100964.66
2023-04-30T17:09:32.242Z,100957.00
2023-04-30T17:19:36.576Z,100949.13
2023-04-30T17:29:39.792Z,100943.91
2023-04-30T17:39:45.376Z,100951.06
2023-04-30T17:49:48.388Z,100949.16
2023-04-30T17:59:53.151Z,100936.31
2023-04-30T18:09:57.320Z,100948.19
2023-04-30T18:20:01.978Z,100938.13
2023-04-30T18:30:06.492Z,100933.88
2023-04-30T18:40:11.931Z,100936.72
2023-04-30T18:50:17.606Z,100937.53
2023-04-30T19:00:22.082Z,100942.44
2023-04-30T19:10:25.105Z,100945.88
2023-04-30T19:20:29.876Z,100948.56
2023-04-30T19:30:32.936Z,100961.28
2023-04-30T19:40:37.225Z,100966.56
2023-04-30T19:50:42.611Z,100972.69
2023-04-30T20:00:47.382Z,100968.91
2023-04-30T20:10:50.782Z,100973.56
2023-04-30T20:20:57.846Z,100972.25
2023-04-30T20:31:01.669Z,100977.28
2023-04-30T20:41:06.366Z,100970.38
2023-04-30T20:51:10.289Z,100981.50
2023-04-30T21:01:15.332Z,100980.06
2023-04-30T21:11:19.485Z,100968.78
2023-04-30T21:21:24.586Z,100968.22
2023-04-30T21:31:27.853Z,100967.75
2023-04-30T21:41:32.662Z,100964.69
2023-04-30T21:51:36.657Z,100965.00
2023-04-30T22:01:41.641Z,100957.28
2023-04-30T22:11:45.498Z,100958.41
2023-04-30T22:21:49.809Z,100946.03
2023-04-30T22:31:53.715Z,100944.88
2023-04-30T22:41:59.047Z,100944.31
2023-04-30T22:52:02.325Z,100941.34
2023-04-30T23:02:06.612Z,100945.66
2023-04-30T23:12:09.990Z,100932.41
2023-04-30T23:22:14.433Z,100938.88
2023-04-30T23:32:17.678Z,100927.38
2023-04-30T23:42:22.007Z,100911.28
2023-04-30T23:52:25.099Z,100904.63
